sensor_id;sensor_type;location;lat;lon;timestamp;pressure;altitude;pressure_sealevel;temperature;humidity
72959;BME280;60008;50.826;6.896;2023-04-30T00:00:10;101678.53;;;9.01;100.00
72959;BME280;60008;50.826;6.896;2023-04-30T00:02:55;101676.19;;;8.86;100.00
72959;BME280;60008;50.826;6.896;2023-04-30T00:05:41;101676.38;;;8.94;100.00
72959;BME280;60008;50.826;6.896;2023-04-30T00:08:26;101687.53;;;8.98;100.00
72959;BME280;60008;50.826;6.896;2023-04-30T00:11:11;101690.28;;;8.76;100.00
72959;BME280;60008;50.826;6.896;2023-04-30T00:13:56;101692.91;;;8.76;100.00
72959;BME280;60008;50.826;6.896;2023-04-30T00:16:41;101692.34;;;8.72;100.00
72959;BME280;60008;50.826;6.896;2023-04-30T00:19:26;101687.34;;;8.58;100.00
72959;BME280;60008;50.826;6.896;2023-04-30T00:22:11;101691.63;;;8.70;100.00
72959;BME280;60008;50.826;6.896;2023-04-30T00:24:56;101700.34;;;8.50;100.00
72959;BME280;60008;50.826;6.896;2023-04-30T00:27:41;101702.72;;;8.53;100.00
72959;BME280;60008;50.826;6.896;2023-04-30T00:30:26;101704.38;;;8.54;100.00
72959;BME280;60008;50.826;6.896;2023-04-30T00:33:16;101708.50;;;8.47;100.00
72959;BME280;60008;50.826;6.896;2023-04-30T00:36:01;101708.50;;;8.47;100.00
72959;BME280;60008;50.826;6.896;2023-04-30T00:38:46;101696.72;;;8.40;100.00
72959;BME280;60008;50.826;6.896;2023-04-30T00:41:34;101708.50;;;8.47;100.00
72959;BME280;60008;50.826;6.896;2023-04-30T00:44:19;101703.22;;;8.47;100.00
72959;BME280;60008;50.826;6.896;2023-04-30T00:47:04;101703.44;;;8.55;100.00
72959;BME280;60008;50.826;6.896;2023-04-30T00:49:49;101702.47;;;8.56;100.00
72959;BME280;60008;50.826;6.896;2023-04-30T00:52:34;101700.34;;;8.50;100.00
72959;BME280;60008;50.826;6.896;2023-04-30T00:55:19;101705.00;;;8.47;100.00
72959;BME280;60008;50.826;6.896;2023-04-30T00:58:04;101699.25;;;8.42;100.00
72959;BME280;60008;50.826;6.896;2023-04-30T01:00:50;101694.09;;;8.40;100.00
72959;BME280;60008;50.826;6.896;2023-04-30T01:03:35;101689.31;;;8.34;100.00
72959;BME280;60008;50.826;6.896;2023-04-30T01:06:21;101683.78;;;8.26;100.00
72959;BME280;60008;50.826;6.896;2023-04-30T01:09:06;101695.06;;;8.17;100.00
72959;BME280;60008;50.826;6.896;2023-04-30T01:12:09;101689.19;;;8.13;100.00
72959;BME280;60008;50.826;6.896;2023-04-30T01:15:21;101685.69;;;8.13;100.00
72959;BME280;60008;50.826;6.896;2023-04-30T01:18:27;101678.28;;;8.07;100.00
72959;BME280;60008;50.826;6.896;2023-04-30T01:21:14;101691.34;;;7.97;100.00
72959;BME280;60008;50.826;6.896;2023-04-30T01:24:14;101694.00;;;7.97;100.00
72959;BME280;60008;50.826;6.896;2023-04-30T01:27:22;101688.09;;;7.94;100.00
72959;BME280;60008;50.826;6.896;2023-04-30T01:30:09;101686.69;;;7.90;100.00
72959;BME280;60008;50.826;6.896;2023-04-30T01:32:55;101685.59;;;7.92;100.00
72959;BME280;60008;50.826;6.896;2023-04-30T01:35:57;101691.59;;;7.83;100.00
72959;BME280;60008;50.826;6.896;2023-04-30T01:41:59;101692.41;;;7.72;100.00
72959;BME280;60008;50.826;6.896;2023-04-30T01:44:57;101691.00;;;7.68;100.00
72959;BME280;60008;50.826;6.896;2023-04-30T01:47:49;101692.06;;;7.66;100.00
72959;BME280;60008;50.826;6.896;2023-04-30T01:50:51;101690.50;;;7.63;100.00
72959;BME280;60008;50.826;6.896;2023-04-30T01:53:41;101689.66;;;7.63;100.00
72959;BME280;60008;50.826;6.896;2023-04-30T01:56:31;101685.47;;;7.71;100.00
72959;BME280;60008;50.826;6.896;2023-04-30T01:59:22;101687.03;;;7.74;100.00
72959;BME280;60008;50.826;6.896;2023-04-30T02:02:07;101697.69;;;7.72;100.00
72959;BME280;60008;50.826;6.896;2023-04-30T02:04:52;101697.44;;;7.64;100.00
72959;BME280;60008;50.826;6.896;2023-04-30T02:07:39;101693.03;;;7.65;100.00
72959;BME280;60008;50.826;6.896;2023-04-30T02:10:25;101691.81;;;7.58;100.00
72959;BME280;60008;50.826;6.896;2023-04-30T02:13:10;101696.50;;;7.54;100.00
72959;BME280;60008;50.826;6.896;2023-04-30T02:15:55;101695.53;;;7.55;100.00
72959;BME280;60008;50.826;6.896;2023-04-30T02:18:41;101701.38;;;7.48;100.00
72959;BME280;60008;50.826;6.896;2023-04-30T02:21:26;101694.19;;;7.39;100.00
72959;BME280;60008;50.826;6.896;2023-04-30T02:24:11;101705.06;;;7.34;100.00
72959;BME280;60008;50.826;6.896;2023-04-30T02:26:56;101698.84;;;7.35;100.00
72959;BME280;60008;50.826;6.896;2023-04-30T02:29:41;101704.84;;;7.37;100.00
72959;BME280;60008;50.826;6.896;2023-04-30T02:32:26;101686.03;;;7.31;100.00
72959;BME280;60008;50.826;6.896;2023-04-30T02:35:11;101700.72;;;7.22;100.00
72959;BME280;60008;50.826;6.896;2023-04-30T02:37:56;101699.84;;;7.10;100.00
72959;BME280;60008;50.826;6.896;2023-04-30T02:40:41;101694.72;;;7.09;100.00
72959;BME280;60008;50.826;6.896;2023-04-30T02:43:26;101698.41;;;7.06;100.00
72959;BME280;60008;50.826;6.896;2023-04-30T02:46:11;101706.59;;;7.14;100.00
72959;BME280;60008;50.826;6.896;2023-04-30T02:48:56;101706.19;;;7.08;100.00
72959;BME280;60008;50.826;6.896;2023-04-30T02:51:41;101701.88;;;7.07;100.00
72959;BME280;60008;50.826;6.896;2023-04-30T02:54:26;101704.22;;;6.99;100.00
72959;BME280;60008;50.826;6.896;2023-04-30T02:57:11;101703.88;;;6.92;100.00
72959;BME280;60008;50.826;6.896;2023-04-30T02:59:56;101704.31;;;6.86;100.00
72959;BME280;60008;50.826;6.896;2023-04-30T03:02:41;101711.50;;;6.84;100.00
72959;BME280;60008;50.826;6.896;2023-04-30T03:05:27;101711.72;;;6.81;100.00
72959;BME280;60008;50.826;6.896;2023-04-30T03:08:12;101713.44;;;6.70;100.00
72959;BME280;60008;50.826;6.896;2023-04-30T03:10:57;101707.44;;;6.68;100.00
72959;BME280;60008;50.826;6.896;2023-04-30T03:13:42;101711.66;;;6.70;100.00
72959;BME280;60008;50.826;6.896;2023-04-30T03:16:27;101714.16;;;6.72;100.00
72959;BME280;60008;50.826;6.896;2023-04-30T03:19:14;101707.53;;;6.66;100.00
72959;BME280;60008;50.826;6.896;2023-04-30T03:21:59;101699.56;;;6.68;100.00
72959;BME280;60008;50.826;6.896;2023-04-30T03:24:45;101700.34;;;6.57;100.00
72959;BME280;60008;50.826;6.896;2023-04-30T03:27:30;101697.19;;;6.52;100.00
72959;BME280;60008;50.826;6.896;2023-04-30T03:30:15;101697.97;;;6.65;100.00
72959;BME280;60008;50.826;6.896;2023-04-30T03:33:00;101698.94;;;6.64;100.00
72959;BME280;60008;50.826;6.896;2023-04-30T03:35:45;101694.00;;;6.59;100.00
72959;BME280;60008;50.826;6.896;2023-04-30T03:38:30;101705.16;;;6.63;100.00
72959;BME280;60008;50.826;6.896;2023-04-30T03:41:15;101697.91;;;6.54;100.00
72959;BME280;60008;50.826;6.896;2023-04-30T03:44:00;101708.53;;;6.52;100.00
72959;BME280;60008;50.826;6.896;2023-04-30T03:46:45;101714.44;;;6.56;100.00
72959;BME280;60008;50.826;6.896;2023-04-30T03:49:30;101700.94;;;6.60;100.00
72959;BME280;60008;50.826;6.896;2023-04-30T03:52:15;101696.34;;;6.51;100.00
72959;BME280;60008;50.826;6.896;2023-04-30T03:55:00;101696.06;;;6.43;100.00
72959;BME280;60008;50.826;6.896;2023-04-30T03:57:45;101692.69;;;6.41;100.00
72959;BME280;60008;50.826;6.896;2023-04-30T04:00:30;101698.63;;;6.32;100.00
72959;BME280;60008;50.826;6.896;2023-04-30T04:03:15;101696.72;;;6.34;100.00
72959;BME280;60008;50.826;6.896;2023-04-30T04:06:01;101700.00;;;6.25;100.00
72959;BME280;60008;50.826;6.896;2023-04-30T04:08:46;101696.34;;;6.15;100.00
72959;BME280;60008;50.826;6.896;2023-04-30T04:11:30;101704.75;;;6.20;100.00
72959;BME280;60008;50.826;6.896;2023-04-30T04:14:15;101697.06;;;6.17;100.00
72959;BME280;60008;50.826;6.896;2023-04-30T04:17:01;101694.78;;;6.13;100.00
72959;BME280;60008;50.826;6.896;2023-04-30T04:19:49;101696.47;;;6.14;100.00
72959;BME280;60008;50.826;6.896;2023-04-30T04:22:34;101702.50;;;6.03;100.00
72959;BME280;60008;50.826;6.896;2023-04-30T04:25:19;101704.28;;;6.03;100.00
72959;BME280;60008;50.826;6.896;2023-04-30T04:28:04;101711.19;;;6.04;100.00
72959;BME280;60008;50.826;6.896;2023-04-30T04:30:49;101715.09;;;6.11;100.00
72959;BME280;60008;50.826;6.896;2023-04-30T04:33:34;101712.97;;;6.16;100.00
72959;BME280;60008;50.826;6.896;2023-04-30T04:36:20;101711.16;;;6.29;100.00
72959;BME280;60008;50.826;6.896;2023-04-30T04:39:06;101706.22;;;6.24;100.00
72959;BME280;60008;50.826;6.896;2023-04-30T04:41:51;101714.81;;;6.39;100.00
72959;BME280;60008;50.826;6.896;2023-04-30T04:44:36;101706.31;;;6.23;100.00
72959;BME280;60008;50.826;6.896;2023-04-30T04:47:22;101700.34;;;6.21;100.00
72959;BME280;60008;50.826;6.896;2023-04-30T04:50:07;101702.88;;;6.22;100.00
72959;BME280;60008;50.826;6.896;2023-04-30T04:52:52;101711.38;;;6.26;100.00
72959;BME280;60008;50.826;6.896;2023-04-30T04:55:37;101713.34;;;6.35;100.00
72959;BME280;60008;50.826;6.896;2023-04-30T04:58:22;101717.44;;;6.39;100.00
72959;BME280;60008;50.826;6.896;2023-04-30T05:01:07;101717.97;;;6.44;100.00
72959;BME280;60008;50.826;6.896;2023-04-30T05:03:53;101718.25;;;6.52;100.00
72959;BME280;60008;50.826;6.896;2023-04-30T05:06:38;101719.16;;;6.64;100.00
72959;BME280;60008;50.826;6.896;2023-04-30T05:09:23;101730.44;;;6.66;100.00
72959;BME280;60008;50.826;6.896;2023-04-30T05:12:08;101719.44;;;6.72;100.00
72959;BME280;60008;50.826;6.896;2023-04-30T05:14:53;101722.47;;;6.78;100.00
72959;BME280;60008;50.826;6.896;2023-04-30T05:17:38;101730.44;;;6.89;100.00
72959;BME280;60008;50.826;6.896;2023-04-30T05:20:23;101733.22;;;6.99;100.00
72959;BME280;60008;50.826;6.896;2023-04-30T05:23:08;101735.53;;;7.03;100.00
72959;BME280;60008;50.826;6.896;2023-04-30T05:25:53;101740.31;;;7.09;100.00
72959;BME280;60008;50.826;6.896;2023-04-30T05:28:39;101748.50;;;7.17;100.00
72959;BME280;60008;50.826;6.896;2023-04-30T05:31:24;101750.38;;;7.28;100.00
72959;BME280;60008;50.826;6.896;2023-04-30T05:34:09;101749.44;;;7.40;100.00
72959;BME280;60008;50.826;6.896;2023-04-30T05:36:54;101741.78;;;7.48;100.00
72959;BME280;60008;50.826;6.896;2023-04-30T05:39:39;101748.88;;;7.59;100.00
72959;BME280;60008;50.826;6.896;2023-04-30T05:42:24;101752.41;;;7.70;100.00
72959;BME280;60008;50.826;6.896;2023-04-30T05:45:09;101755.41;;;7.77;100.00
72959;BME280;60008;50.826;6.896;2023-04-30T05:47:55;101754.44;;;7.78;100.00
72959;BME280;60008;50.826;6.896;2023-04-30T05:50:40;101748.47;;;7.87;100.00
72959;BME280;60008;50.826;6.896;2023-04-30T05:53:26;101743.44;;;7.95;100.00
72959;BME280;60008;50.826;6.896;2023-04-30T05:56:11;101745.47;;;8.03;100.00
72959;BME280;60008;50.826;6.896;2023-04-30T05:58:56;101741.50;;;8.08;100.00
72959;BME280;60008;50.826;6.896;2023-04-30T06:01:41;101744.28;;;8.18;100.00
72959;BME280;60008;50.826;6.896;2023-04-30T06:04:27;101748.63;;;8.30;100.00
72959;BME280;60008;50.826;6.896;2023-04-30T06:07:12;101741.16;;;8.35;100.00
72959;BME280;60008;50.826;6.896;2023-04-30T06:09:56;101740.91;;;8.49;100.00
72959;BME280;60008;50.826;6.896;2023-04-30T06:12:42;101725.91;;;8.50;100.00
72959;BME280;60008;50.826;6.896;2023-04-30T06:15:27;101725.66;;;8.53;100.00
72959;BME280;60008;50.826;6.896;2023-04-30T06:18:12;101727.09;;;8.57;100.00
72959;BME280;60008;50.826;6.896;2023-04-30T06:20:58;101731.28;;;8.59;100.00
72959;BME280;60008;50.826;6.896;2023-04-30T06:23:43;101720.47;;;8.62;100.00
72959;BME280;60008;50.826;6.896;2023-04-30T06:26:27;101732.44;;;8.77;100.00
72959;BME280;60008;50.826;6.896;2023-04-30T06:29:13;101723.66;;;8.88;100.00
72959;BME280;60008;50.826;6.896;2023-04-30T06:31:57;101720.13;;;8.98;100.00
72959;BME280;60008;50.826;6.896;2023-04-30T06:34:43;101728.66;;;9.02;100.00
72959;BME280;60008;50.826;6.896;2023-04-30T06:37:27;101724.63;;;8.76;100.00
72959;BME280;60008;50.826;6.896;2023-04-30T06:40:13;101734.97;;;8.79;100.00
72959;BME280;60008;50.826;6.896;2023-04-30T06:42:58;101734.31;;;8.86;100.00
72959;BME280;60008;50.826;6.896;2023-04-30T06:45:43;101731.91;;;8.94;100.00
72959;BME280;60008;50.826;6.896;2023-04-30T06:48:27;101736.47;;;8.92;100.00
72959;BME280;60008;50.826;6.896;2023-04-30T06:51:12;101727.34;;;8.96;100.00
72959;BME280;60008;50.826;6.896;2023-04-30T06:53:57;101726.47;;;9.07;100.00
72959;BME280;60008;50.826;6.896;2023-04-30T06:56:42;101727.06;;;8.99;100.00
72959;BME280;60008;50.826;6.896;2023-04-30T06:59:28;101729.63;;;8.90;100.00
72959;BME280;60008;50.826;6.896;2023-04-30T07:02:13;101731.84;;;9.06;100.00
72959;BME280;60008;50.826;6.896;2023-04-30T07:04:59;101729.81;;;9.30;100.00
72959;BME280;60008;50.826;6.896;2023-04-30T07:07:44;101727.97;;;9.41;100.00
72959;BME280;60008;50.826;6.896;2023-04-30T07:10:30;101724.09;;;9.45;100.00
72959;BME280;60008;50.826;6.896;2023-04-30T07:13:15;101726.16;;;9.42;100.00
72959;BME280;60008;50.826;6.896;2023-04-30T07:16:00;101732.16;;;9.44;100.00
72959;BME280;60008;50.826;6.896;2023-04-30T07:18:45;101730.94;;;9.48;100.00
72959;BME280;60008;50.826;6.896;2023-04-30T07:21:32;101725.38;;;9.72;100.00
72959;BME280;60008;50.826;6.896;2023-04-30T07:24:17;101726.47;;;9.69;100.00
72959;BME280;60008;50.826;6.896;2023-04-30T07:27:02;101722.59;;;9.73;100.00
72959;BME280;60008;50.826;6.896;2023-04-30T07:29:48;101721.38;;;9.77;100.00
72959;BME280;60008;50.826;6.896;2023-04-30T07:32:34;101718.03;;;9.75;100.00
72959;BME280;60008;50.826;6.896;2023-04-30T07:35:19;101725.25;;;10.03;100.00
72959;BME280;60008;50.826;6.896;2023-04-30T07:38:04;101718.31;;;10.12;100.00
72959;BME280;60008;50.826;6.896;2023-04-30T07:40:49;101714.38;;;10.06;100.00
72959;BME280;60008;50.826;6.896;2023-04-30T07:43:34;101716.59;;;10.32;100.00
72959;BME280;60008;50.826;6.896;2023-04-30T07:46:20;101712.38;;;10.59;100.00
72959;BME280;60008;50.826;6.896;2023-04-30T07:49:04;101704.94;;;10.53;100.00
72959;BME280;60008;50.826;6.896;2023-04-30T07:51:50;101699.25;;;10.67;100.00
72959;BME280;60008;50.826;6.896;2023-04-30T07:54:36;101701.88;;;10.58;100.00
72959;BME280;60008;50.826;6.896;2023-04-30T07:57:22;101695.47;;;11.37;100.00
72959;BME280;60008;50.826;6.896;2023-04-30T08:00:08;101666.94;;;14.39;100.00
72959;BME280;60008;50.826;6.896;2023-04-30T08:02:53;101659.56;;;16.87;100.00
72959;BME280;60008;50.826;6.896;2023-04-30T08:05:38;101652.53;;;18.19;100.00
72959;BME280;60008;50.826;6.896;2023-04-30T08:08:24;101650.53;;;17.62;100.00
72959;BME280;60008;50.826;6.896;2023-04-30T08:11:10;101652.56;;;18.40;100.00
72959;BME280;60008;50.826;6.896;2023-04-30T08:13:55;101658.72;;;17.46;100.00
72959;BME280;60008;50.826;6.896;2023-04-30T08:16:41;101667.22;;;19.65;100.00
72959;BME280;60008;50.826;6.896;2023-04-30T08:19:25;101660.13;;;19.36;100.00
72959;BME280;60008;50.826;6.896;2023-04-30T08:22:11;101660.69;;;16.39;100.00
72959;BME280;60008;50.826;6.896;2023-04-30T08:24:55;101664.16;;;15.62;100.00
72959;BME280;60008;50.826;6.896;2023-04-30T08:27:41;101657.44;;;18.66;100.00
72959;BME280;60008;50.826;6.896;2023-04-30T08:30:26;101657.13;;;19.24;99.32
72959;BME280;60008;50.826;6.896;2023-04-30T08:33:11;101659.19;;;19.22;97.49
72959;BME280;60008;50.826;6.896;2023-04-30T08:35:56;101637.47;;;21.00;92.57
72959;BME280;60008;50.826;6.896;2023-04-30T08:38:41;101639.72;;;21.62;91.31
72959;BME280;60008;50.826;6.896;2023-04-30T08:41:31;101653.78;;;16.44;100.00
72959;BME280;60008;50.826;6.896;2023-04-30T08:44:19;101645.13;;;19.76;100.00
72959;BME280;60008;50.826;6.896;2023-04-30T08:47:06;101647.59;;;20.85;84.28
72959;BME280;60008;50.826;6.896;2023-04-30T08:49:53;101644.25;;;21.75;79.52
72959;BME280;60008;50.826;6.896;2023-04-30T08:52:40;101631.06;;;21.08;79.42
72959;BME280;60008;50.826;6.896;2023-04-30T08:55:27;101643.38;;;18.13;99.26
72959;BME280;60008;50.826;6.896;2023-04-30T08:58:12;101638.44;;;20.53;93.74
72959;BME280;60008;50.826;6.896;2023-04-30T09:00:58;101632.47;;;23.21;76.68
72959;BME280;60008;50.826;6.896;2023-04-30T09:03:43;101634.75;;;23.66;73.33
72959;BME280;60008;50.826;6.896;2023-04-30T09:06:29;101632.41;;;21.89;68.39
72959;BME280;60008;50.826;6.896;2023-04-30T09:09:15;101633.13;;;21.32;79.45
72959;BME280;60008;50.826;6.896;2023-04-30T09:12:10;101625.25;;;22.14;78.68
72959;BME280;60008;50.826;6.896;2023-04-30T09:15:05;101621.88;;;24.46;64.88
72959;BME280;60008;50.826;6.896;2023-04-30T09:18:12;101625.78;;;23.48;62.01
72959;BME280;60008;50.826;6.896;2023-04-30T09:20:59;101623.13;;;20.80;68.90
72959;BME280;60008;50.826;6.896;2023-04-30T09:24:00;101617.38;;;19.13;77.87
72959;BME280;60008;50.826;6.896;2023-04-30T09:26:46;101615.59;;;18.57;91.47
72959;BME280;60008;50.826;6.896;2023-04-30T09:29:37;101600.81;;;20.19;74.73
72959;BME280;60008;50.826;6.896;2023-04-30T09:32:22;101603.44;;;20.66;73.93
72959;BME280;60008;50.826;6.896;2023-04-30T09:35:27;101599.25;;;19.90;82.50
72959;BME280;60008;50.826;6.896;2023-04-30T09:38:30;101594.28;;;21.59;70.89
72959;BME280;60008;50.826;6.896;2023-04-30T09:41:25;101602.81;;;18.80;67.95
72959;BME280;60008;50.826;6.896;2023-04-30T09:44:30;101605.28;;;19.02;69.12
72959;BME280;60008;50.826;6.896;2023-04-30T09:47:18;101606.34;;;19.08;66.81
72959;BME280;60008;50.826;6.896;2023-04-30T09:50:03;101598.47;;;20.76;68.03
72959;BME280;60008;50.826;6.896;2023-04-30T09:52:53;101593.50;;;20.87;69.36
72959;BME280;60008;50.826;6.896;2023-04-30T09:55:42;101587.75;;;20.16;61.60
72959;BME280;60008;50.826;6.896;2023-04-30T09:58:28;101587.28;;;22.03;57.78
72959;BME280;60008;50.826;6.896;2023-04-30T10:01:16;101586.34;;;22.91;51.59
72959;BME280;60008;50.826;6.896;2023-04-30T10:04:02;101577.50;;;22.77;47.51
72959;BME280;60008;50.826;6.896;2023-04-30T10:06:51;101576.47;;;22.09;49.34
72959;BME280;60008;50.826;6.896;2023-04-30T10:09:40;101579.53;;;23.49;48.46
72959;BME280;60008;50.826;6.896;2023-04-30T10:12:59;101561.78;;;25.37;44.26
72959;BME280;60008;50.826;6.896;2023-04-30T10:15:50;101557.09;;;22.50;43.64
72959;BME280;60008;50.826;6.896;2023-04-30T10:18:38;101563.63;;;22.36;56.17
72959;BME280;60008;50.826;6.896;2023-04-30T10:21:26;101546.47;;;24.43;46.76
72959;BME280;60008;50.826;6.896;2023-04-30T10:24:14;101559.50;;;20.46;54.72
72959;BME280;60008;50.826;6.896;2023-04-30T10:26:59;101547.75;;;23.63;48.95
72959;BME280;60008;50.826;6.896;2023-04-30T10:29:44;101552.06;;;24.30;45.20
72959;BME280;60008;50.826;6.896;2023-04-30T10:32:37;101547.63;;;19.74;63.79
72959;BME280;60008;50.826;6.896;2023-04-30T10:35:35;101554.91;;;18.20;63.58
72959;BME280;60008;50.826;6.896;2023-04-30T10:38:25;101548.50;;;20.48;64.05
72959;BME280;60008;50.826;6.896;2023-04-30T10:41:11;101554.72;;;18.85;60.15
72959;BME280;60008;50.826;6.896;2023-04-30T10:43:57;101550.97;;;18.79;62.68
72959;BME280;60008;50.826;6.896;2023-04-30T10:46:46;101544.56;;;17.81;72.11
72959;BME280;60008;50.826;6.896;2023-04-30T10:49:31;101533.47;;;21.57;60.25
72959;BME280;60008;50.826;6.896;2023-04-30T10:52:26;101525.69;;;21.22;51.96
72959;BME280;60008;50.826;6.896;2023-04-30T10:55:15;101528.81;;;21.19;55.67
72959;BME280;60008;50.826;6.896;2023-04-30T10:58:00;101522.16;;;22.80;50.15
72959;BME280;60008;50.826;6.896;2023-04-30T11:01:03;101513.56;;;23.07;47.71
72959;BME280;60008;50.826;6.896;2023-04-30T11:04:08;101513.78;;;22.88;52.17
72959;BME280;60008;50.826;6.896;2023-04-30T11:07:00;101498.53;;;20.91;56.02
72959;BME280;60008;50.826;6.896;2023-04-30T11:09:47;101503.53;;;22.72;45.50
72959;BME280;60008;50.826;6.896;2023-04-30T11:12:32;101496.25;;;18.87;58.04
72959;BME280;60008;50.826;6.896;2023-04-30T11:15:19;101503.81;;;17.56;68.51
72959;BME280;60008;50.826;6.896;2023-04-30T11:18:06;101501.03;;;16.91;71.73
72959;BME280;60008;50.826;6.896;2023-04-30T11:20:51;101498.06;;;18.52;73.48
72959;BME280;60008;50.826;6.896;2023-04-30T11:23:39;101486.13;;;21.61;52.27
72959;BME280;60008;50.826;6.896;2023-04-30T11:26:26;101485.09;;;20.78;51.89
72959;BME280;60008;50.826;6.896;2023-04-30T11:29:11;101491.09;;;18.15;61.15
72959;BME280;60008;50.826;6.896;2023-04-30T11:32:03;101489.34;;;18.08;71.63
72959;BME280;60008;50.826;6.896;2023-04-30T11:34:48;101489.25;;;18.65;71.63
72959;BME280;60008;50.826;6.896;2023-04-30T11:37:36;101476.59;;;18.80;59.98
72959;BME280;60008;50.826;6.896;2023-04-30T11:40:21;101472.59;;;19.03;69.42
72959;BME280;60008;50.826;6.896;2023-04-30T11:43:06;101473.47;;;17.70;64.45
72959;BME280;60008;50.826;6.896;2023-04-30T11:46:11;101480.97;;;17.96;66.02
72959;BME280;60008;50.826;6.896;2023-04-30T11:48:56;101459.69;;;18.16;66.78
72959;BME280;60008;50.826;6.896;2023-04-30T11:51:42;101475.38;;;17.55;66.55
72959;BME280;60008;50.826;6.896;2023-04-30T11:54:30;101460.91;;;18.56;63.28
72959;BME280;60008;50.826;6.896;2023-04-30T11:57:15;101457.91;;;18.44;66.12
72959;BME280;60008;50.826;6.896;2023-04-30T12:00:10;101462.84;;;17.98;64.55
72959;BME280;60008;50.826;6.896;2023-04-30T12:02:57;101451.53;;;18.03;62.59
72959;BME280;60008;50.826;6.896;2023-04-30T12:05:45;101444.13;;;18.75;65.76
72959;BME280;60008;50.826;6.896;2023-04-30T12:08:30;101443.47;;;18.73;62.63
72959;BME280;60008;50.826;6.896;2023-04-30T12:11:22;101442.53;;;18.87;66.04
72959;BME280;60008;50.826;6.896;2023-04-30T12:14:10;101429.63;;;18.76;65.09
72959;BME280;60008;50.826;6.896;2023-04-30T12:16:55;101430.63;;;19.02;66.03
72959;BME280;60008;50.826;6.896;2023-04-30T12:19:40;101422.97;;;18.65;57.75
72959;BME280;60008;50.826;6.896;2023-04-30T12:22:26;101417.44;;;18.73;56.78
72959;BME280;60008;50.826;6.896;2023-04-30T12:25:14;101422.38;;;18.42;56.66
72959;BME280;60008;50.826;6.896;2023-04-30T12:27:59;101427.34;;;18.45;62.40
72959;BME280;60008;50.826;6.896;2023-04-30T12:30:45;101424.25;;;18.20;56.78
72959;BME280;60008;50.826;6.896;2023-04-30T12:33:31;101424.16;;;18.07;62.53
72959;BME280;60008;50.826;6.896;2023-04-30T12:36:16;101415.53;;;18.67;56.44
72959;BME280;60008;50.826;6.896;2023-04-30T12:39:12;101410.56;;;18.98;51.72
72959;BME280;60008;50.826;6.896;2023-04-30T12:42:00;101396.94;;;19.47;53.45
72959;BME280;60008;50.826;6.896;2023-04-30T12:44:45;101409.31;;;18.60;50.11
72959;BME280;60008;50.826;6.896;2023-04-30T12:47:30;101406.91;;;19.13;57.34
72959;BME280;60008;50.826;6.896;2023-04-30T12:50:15;101398.03;;;19.66;56.25
72959;BME280;60008;50.826;6.896;2023-04-30T12:53:01;101395.81;;;19.89;50.87
72959;BME280;60008;50.826;6.896;2023-04-30T12:56:06;101405.47;;;19.71;54.47
72959;BME280;60008;50.826;6.896;2023-04-30T12:58:51;101397.91;;;18.86;51.46
72959;BME280;60008;50.826;6.896;2023-04-30T13:01:43;101389.53;;;19.56;52.41
72959;BME280;60008;50.826;6.896;2023-04-30T13:04:28;101399.09;;;18.77;49.66
72959;BME280;60008;50.826;6.896;2023-04-30T13:07:13;101384.53;;;19.46;49.33
72959;BME280;60008;50.826;6.896;2023-04-30T13:09:58;101384.00;;;19.84;49.37
72959;BME280;60008;50.826;6.896;2023-04-30T13:12:43;101384.53;;;19.40;47.47
72959;BME280;60008;50.826;6.896;2023-04-30T13:15:28;101381.84;;;19.59;50.60
72959;BME280;60008;50.826;6.896;2023-04-30T13:18:13;101380.19;;;19.52;49.42
72959;BME280;60008;50.826;6.896;2023-04-30T13:21:00;101376.66;;;19.51;50.46
72959;BME280;60008;50.826;6.896;2023-04-30T13:23:45;101369.56;;;19.31;52.47
72959;BME280;60008;50.826;6.896;2023-04-30T13:26:38;101365.13;;;19.77;57.77
72959;BME280;60008;50.826;6.896;2023-04-30T13:29:23;101360.38;;;19.92;54.25
72959;BME280;60008;50.826;6.896;2023-04-30T13:32:08;101356.88;;;19.98;48.52
72959;BME280;60008;50.826;6.896;2023-04-30T13:34:54;101354.22;;;19.25;48.08
72959;BME280;60008;50.826;6.896;2023-04-30T13:37:40;101357.50;;;19.81;50.00
72959;BME280;60008;50.826;6.896;2023-04-30T13:40:26;101353.78;;;20.01;50.68
72959;BME280;60008;50.826;6.896;2023-04-30T13:43:11;101350.06;;;20.02;52.09
72959;BME280;60008;50.826;6.896;2023-04-30T13:45:56;101339.56;;;19.27;48.63
72959;BME280;60008;50.826;6.896;2023-04-30T13:48:44;101348.31;;;19.42;52.65
72959;BME280;60008;50.826;6.896;2023-04-30T13:51:33;101337.59;;;19.69;51.77
72959;BME280;60008;50.826;6.896;2023-04-30T13:54:18;101333.66;;;18.97;50.51
72959;BME280;60008;50.826;6.896;2023-04-30T13:57:03;101331.28;;;18.68;52.25
72959;BME280;60008;50.826;6.896;2023-04-30T13:59:49;101326.22;;;19.53;54.09
72959;BME280;60008;50.826;6.896;2023-04-30T14:02:34;101319.63;;;19.76;52.96
72959;BME280;60008;50.826;6.896;2023-04-30T14:05:19;101321.53;;;19.15;50.07
72959;BME280;60008;50.826;6.896;2023-04-30T14:08:04;101315.03;;;18.49;52.59
72959;BME280;60008;50.826;6.896;2023-04-30T14:10:49;101318.50;;;18.77;52.89
72959;BME280;60008;50.826;6.896;2023-04-30T14:13:34;101315.50;;;18.99;51.69
72959;BME280;60008;50.826;6.896;2023-04-30T14:16:20;101315.72;;;19.05;50.76
72959;BME280;60008;50.826;6.896;2023-04-30T14:19:06;101323.00;;;19.17;51.45
72959;BME280;60008;50.826;6.896;2023-04-30T14:21:51;101306.03;;;19.17;50.93
72959;BME280;60008;50.826;6.896;2023-04-30T14:24:36;101299.34;;;19.80;54.57
72959;BME280;60008;50.826;6.896;2023-04-30T14:27:22;101305.31;;;19.82;52.21
72959;BME280;60008;50.826;6.896;2023-04-30T14:30:07;101296.84;;;19.58;49.90
72959;BME280;60008;50.826;6.896;2023-04-30T14:32:53;101298.09;;;19.82;51.69
72959;BME280;60008;50.826;6.896;2023-04-30T14:35:38;101289.59;;;20.05;50.90